sensor_id;sensor_type;location;lat;lon;timestamp;temperature;humidity
25410;DHT22;13339;50.840;4.346;2022-09-12T00:00:10;19.50;99.90
25410;DHT22;13339;50.840;4.346;2022-09-12T00:02:36;19.40;99.90
25410;DHT22;13339;50.840;4.346;2022-09-12T00:05:02;19.40;99.90
25410;DHT22;13339;50.840;4.346;2022-09-12T00:07:27;19.50;99.90
25410;DHT22;13339;50.840;4.346;2022-09-12T00:09:53;19.50;99.90
25410;DHT22;13339;50.840;4.346;2022-09-12T00:12:19;19.50;99.90
25410;DHT22;13339;50.840;4.346;2022-09-12T00:14:44;19.40;99.90
25410;DHT22;13339;50.840;4.346;2022-09-12T00:17:10;19.40;99.90
25410;DHT22;13339;50.840;4.346;2022-09-12T00:19:36;19.40;99.90
25410;DHT22;13339;50.840;4.346;2022-09-12T00:22:02;19.40;99.90
25410;DHT22;13339;50.840;4.346;2022-09-12T00:24:28;19.50;99.90
25410;DHT22;13339;50.840;4.346;2022-09-12T00:26:53;19.60;99.90
25410;DHT22;13339;50.840;4.346;2022-09-12T00:29:21;19.40;99.90
25410;DHT22;13339;50.840;4.346;2022-09-12T00:31:47;19.30;99.90
25410;DHT22;13339;50.840;4.346;2022-09-12T00:34:13;19.30;99.90
25410;DHT22;13339;50.840;4.346;2022-09-12T00:36:39;19.40;99.90
25410;DHT22;13339;50.840;4.346;2022-09-12T00:39:05;19.50;99.90
25410;DHT22;13339;50.840;4.346;2022-09-12T00:41:36;19.50;99.90
25410;DHT22;13339;50.840;4.346;2022-09-12T00:46:43;19.40;99.90
25410;DHT22;13339;50.840;4.346;2022-09-12T00:51:40;19.30;99.90
25410;DHT22;13339;50.840;4.346;2022-09-12T00:54:11;19.40;99.90
25410;DHT22;13339;50.840;4.346;2022-09-12T00:56:40;19.40;99.90
25410;DHT22;13339;50.840;4.346;2022-09-12T00:59:17;19.40;99.90
25410;DHT22;13339;50.840;4.346;2022-09-12T01:01:47;19.30;99.90
25410;DHT22;13339;50.840;4.346;2022-09-12T01:04:14;19.30;99.90
25410;DHT22;13339;50.840;4.346;2022-09-12T01:06:42;19.30;99.90
25410;DHT22;13339;50.840;4.346;2022-09-12T01:09:13;19.20;99.90
25410;DHT22;13339;50.840;4.346;2022-09-12T01:11:40;19.20;99.90
25410;DHT22;13339;50.840;4.346;2022-09-12T01:14:07;19.30;99.90
25410;DHT22;13339;50.840;4.346;2022-09-12T01:16:36;19.30;99.90
25410;DHT22;13339;50.840;4.346;2022-09-12T01:27:41;19.30;99.90
25410;DHT22;13339;50.840;4.346;2022-09-12T01:38:52;19.20;99.90
25410;DHT22;13339;50.840;4.346;2022-09-12T01:41:42;19.20;99.90
25410;DHT22;13339;50.840;4.346;2022-09-12T01:47:11;19.20;99.90
25410;DHT22;13339;50.840;4.346;2022-09-12T01:50:00;19.30;99.90
25410;DHT22;13339;50.840;4.346;2022-09-12T01:52:28;19.20;99.90
25410;DHT22;13339;50.840;4.346;2022-09-12T01:55:12;19.10;99.90
25410;DHT22;13339;50.840;4.346;2022-09-12T01:57:53;19.20;99.90
25410;DHT22;13339;50.840;4.346;2022-09-12T02:00:21;19.20;99.90
25410;DHT22;13339;50.840;4.346;2022-09-12T02:05:33;19.10;99.90
25410;DHT22;13339;50.840;4.346;2022-09-12T02:11:01;19.10;99.90
25410;DHT22;13339;50.840;4.346;2022-09-12T02:16:22;19.00;99.90
25410;DHT22;13339;50.840;4.346;2022-09-12T02:18:52;19.00;99.90
25410;DHT22;13339;50.840;4.346;2022-09-12T02:21:21;18.90;99.90
25410;DHT22;13339;50.840;4.346;2022-09-12T02:23:53;18.90;99.90
25410;DHT22;13339;50.840;4.346;2022-09-12T02:26:33;19.10;99.90
25410;DHT22;13339;50.840;4.346;2022-09-12T02:29:01;19.00;99.90
25410;DHT22;13339;50.840;4.346;2022-09-12T02:31:28;19.00;99.90
25410;DHT22;13339;50.840;4.346;2022-09-12T02:36:51;18.80;99.90
25410;DHT22;13339;50.840;4.346;2022-09-12T02:39:19;18.90;99.90
25410;DHT22;13339;50.840;4.346;2022-09-12T02:41:53;18.90;99.90
25410;DHT22;13339;50.840;4.346;2022-09-12T02:44:20;18.90;99.90
25410;DHT22;13339;50.840;4.346;2022-09-12T02:46:51;18.80;99.90
25410;DHT22;13339;50.840;4.346;2022-09-12T02:49:18;18.80;99.90
25410;DHT22;13339;50.840;4.346;2022-09-12T02:51:44;18.90;99.90
25410;DHT22;13339;50.840;4.346;2022-09-12T02:54:11;18.90;99.90
25410;DHT22;13339;50.840;4.346;2022-09-12T02:56:40;18.90;99.90
25410;DHT22;13339;50.840;4.346;2022-09-12T02:59:07;18.80;99.90
25410;DHT22;13339;50.840;4.346;2022-09-12T03:09:19;18.90;99.90
25410;DHT22;13339;50.840;4.346;2022-09-12T03:14:51;18.90;99.90
25410;DHT22;13339;50.840;4.346;2022-09-12T03:20:01;18.70;99.90
25410;DHT22;13339;50.840;4.346;2022-09-12T03:22:37;18.60;99.90
25410;DHT22;13339;50.840;4.346;2022-09-12T03:25:31;18.60;99.90
25410;DHT22;13339;50.840;4.346;2022-09-12T03:28:05;18.50;99.90
25410;DHT22;13339;50.840;4.346;2022-09-12T03:30:40;18.50;99.90
25410;DHT22;13339;50.840;4.346;2022-09-12T03:33:10;18.40;99.90
25410;DHT22;13339;50.840;4.346;2022-09-12T03:35:36;18.40;99.90
25410;DHT22;13339;50.840;4.346;2022-09-12T03:38:01;18.50;99.90
25410;DHT22;13339;50.840;4.346;2022-09-12T03:40:27;18.40;99.90
25410;DHT22;13339;50.840;4.346;2022-09-12T03:42:53;18.30;99.90
25410;DHT22;13339;50.840;4.346;2022-09-12T03:45:18;18.40;99.90
25410;DHT22;13339;50.840;4.346;2022-09-12T03:47:44;18.50;99.90
25410;DHT22;13339;50.840;4.346;2022-09-12T03:50:10;18.40;99.90
25410;DHT22;13339;50.840;4.346;2022-09-12T03:52:35;18.40;99.90
25410;DHT22;13339;50.840;4.346;2022-09-12T03:55:01;18.30;99.90
25410;DHT22;13339;50.840;4.346;2022-09-12T03:57:26;18.40;99.90
25410;DHT22;13339;50.840;4.346;2022-09-12T03:59:52;18.50;99.90
25410;DHT22;13339;50.840;4.346;2022-09-12T04:02:18;18.60;99.90
25410;DHT22;13339;50.840;4.346;2022-09-12T04:04:44;18.60;99.90
25410;DHT22;13339;50.840;4.346;2022-09-12T04:07:13;18.70;99.90
25410;DHT22;13339;50.840;4.346;2022-09-12T04:09:39;18.70;99.90
25410;DHT22;13339;50.840;4.346;2022-09-12T04:12:05;18.50;99.90
25410;DHT22;13339;50.840;4.346;2022-09-12T04:14:31;18.30;99.90
25410;DHT22;13339;50.840;4.346;2022-09-12T04:16:57;18.40;99.90
25410;DHT22;13339;50.840;4.346;2022-09-12T04:19:23;18.40;99.90
25410;DHT22;13339;50.840;4.346;2022-09-12T04:21:49;18.50;99.90
25410;DHT22;13339;50.840;4.346;2022-09-12T04:24:15;18.60;99.90
25410;DHT22;13339;50.840;4.346;2022-09-12T04:26:40;18.50;99.90
25410;DHT22;13339;50.840;4.346;2022-09-12T04:29:06;18.40;99.90
25410;DHT22;13339;50.840;4.346;2022-09-12T04:31:31;18.30;99.90
25410;DHT22;13339;50.840;4.346;2022-09-12T04:33:59;18.20;99.90
25410;DHT22;13339;50.840;4.346;2022-09-12T04:36:25;18.30;99.90
25410;DHT22;13339;50.840;4.346;2022-09-12T04:38:52;18.30;99.90
25410;DHT22;13339;50.840;4.346;2022-09-12T04:41:23;18.40;99.90
25410;DHT22;13339;50.840;4.346;2022-09-12T04:43:54;18.30;99.90
25410;DHT22;13339;50.840;4.346;2022-09-12T04:46:22;18.40;99.90
25410;DHT22;13339;50.840;4.346;2022-09-12T04:48:48;18.40;99.90
25410;DHT22;13339;50.840;4.346;2022-09-12T04:51:16;18.30;99.90
25410;DHT22;13339;50.840;4.346;2022-09-12T04:53:47;18.40;99.90
25410;DHT22;13339;50.840;4.346;2022-09-12T04:56:13;18.30;99.90
25410;DHT22;13339;50.840;4.346;2022-09-12T04:58:39;18.30;99.90
25410;DHT22;13339;50.840;4.346;2022-09-12T05:01:10;18.30;99.90
25410;DHT22;13339;50.840;4.346;2022-09-12T05:03:36;18.40;99.90
25410;DHT22;13339;50.840;4.346;2022-09-12T05:06:06;18.40;99.90
25410;DHT22;13339;50.840;4.346;2022-09-12T05:08:33;18.30;99.90
25410;DHT22;13339;50.840;4.346;2022-09-12T05:11:04;18.30;99.90
25410;DHT22;13339;50.840;4.346;2022-09-12T05:13:31;18.30;99.90
25410;DHT22;13339;50.840;4.346;2022-09-12T05:15:59;18.40;99.90
25410;DHT22;13339;50.840;4.346;2022-09-12T05:18:24;18.30;99.90
25410;DHT22;13339;50.840;4.346;2022-09-12T05:20:54;18.30;99.90
25410;DHT22;13339;50.840;4.346;2022-09-12T05:23:20;18.30;99.90
25410;DHT22;13339;50.840;4.346;2022-09-12T05:25:52;18.30;99.90
25410;DHT22;13339;50.840;4.346;2022-09-12T05:28:19;18.30;99.90
25410;DHT22;13339;50.840;4.346;2022-09-12T05:30:46;18.20;99.90
25410;DHT22;13339;50.840;4.346;2022-09-12T05:33:12;18.20;99.90
25410;DHT22;13339;50.840;4.346;2022-09-12T05:35:38;18.30;99.90
25410;DHT22;13339;50.840;4.346;2022-09-12T05:38:05;18.20;99.90
25410;DHT22;13339;50.840;4.346;2022-09-12T05:40:31;18.10;99.90
25410;DHT22;13339;50.840;4.346;2022-09-12T05:42:57;18.10;99.90
25410;DHT22;13339;50.840;4.346;2022-09-12T05:45:22;18.20;99.90
25410;DHT22;13339;50.840;4.346;2022-09-12T05:47:48;18.30;99.90
25410;DHT22;13339;50.840;4.346;2022-09-12T05:50:14;18.20;99.90
25410;DHT22;13339;50.840;4.346;2022-09-12T05:52:39;18.20;99.90
25410;DHT22;13339;50.840;4.346;2022-09-12T05:55:05;18.20;99.90
25410;DHT22;13339;50.840;4.346;2022-09-12T05:57:31;18.20;99.90
25410;DHT22;13339;50.840;4.346;2022-09-12T05:59:58;18.20;99.90
25410;DHT22;13339;50.840;4.346;2022-09-12T06:02:24;18.20;99.90
25410;DHT22;13339;50.840;4.346;2022-09-12T06:04:49;18.30;99.90
25410;DHT22;13339;50.840;4.346;2022-09-12T06:07:15;18.30;99.90
25410;DHT22;13339;50.840;4.346;2022-09-12T06:09:40;18.20;99.90
25410;DHT22;13339;50.840;4.346;2022-09-12T06:12:06;18.20;99.90
25410;DHT22;13339;50.840;4.346;2022-09-12T06:14:33;18.20;99.90
25410;DHT22;13339;50.840;4.346;2022-09-12T06:16:59;18.30;99.90
25410;DHT22;13339;50.840;4.346;2022-09-12T06:19:25;18.30;99.90
25410;DHT22;13339;50.840;4.346;2022-09-12T06:21:52;18.40;99.90
25410;DHT22;13339;50.840;4.346;2022-09-12T06:24:19;18.40;99.90
25410;DHT22;13339;50.840;4.346;2022-09-12T06:26:46;18.30;99.90
25410;DHT22;13339;50.840;4.346;2022-09-12T06:29:13;18.30;99.90
25410;DHT22;13339;50.840;4.346;2022-09-12T06:31:40;18.30;99.90
25410;DHT22;13339;50.840;4.346;2022-09-12T06:34:08;18.40;99.90
25410;DHT22;13339;50.840;4.346;2022-09-12T06:36:38;18.50;99.90
25410;DHT22;13339;50.840;4.346;2022-09-12T06:39:07;18.50;99.90
25410;DHT22;13339;50.840;4.346;2022-09-12T06:41:33;18.50;99.90
25410;DHT22;13339;50.840;4.346;2022-09-12T06:44:00;18.40;99.90
25410;DHT22;13339;50.840;4.346;2022-09-12T06:46:27;18.40;99.90
25410;DHT22;13339;50.840;4.346;2022-09-12T06:48:55;18.50;99.90
25410;DHT22;13339;50.840;4.346;2022-09-12T06:51:20;18.40;99.90
25410;DHT22;13339;50.840;4.346;2022-09-12T06:53:47;18.40;99.90
25410;DHT22;13339;50.840;4.346;2022-09-12T06:56:19;18.50;99.90
25410;DHT22;13339;50.840;4.346;2022-09-12T06:58:45;18.60;99.90
25410;DHT22;13339;50.840;4.346;2022-09-12T07:01:30;18.70;99.90
25410;DHT22;13339;50.840;4.346;2022-09-12T07:04:00;18.80;99.90
25410;DHT22;13339;50.840;4.346;2022-09-12T07:06:29;18.90;99.90
25410;DHT22;13339;50.840;4.346;2022-09-12T07:08:59;19.00;99.90
25410;DHT22;13339;50.840;4.346;2022-09-12T07:11:29;19.00;99.90
25410;DHT22;13339;50.840;4.346;2022-09-12T07:13:57;19.10;99.90
25410;DHT22;13339;50.840;4.346;2022-09-12T07:16:23;19.20;99.90
25410;DHT22;13339;50.840;4.346;2022-09-12T07:18:54;19.10;99.90
25410;DHT22;13339;50.840;4.346;2022-09-12T07:21:20;19.00;99.90
25410;DHT22;13339;50.840;4.346;2022-09-12T07:23:47;19.20;99.90
25410;DHT22;13339;50.840;4.346;2022-09-12T07:26:14;19.20;99.90
25410;DHT22;13339;50.840;4.346;2022-09-12T07:28:40;19.20;99.90
25410;DHT22;13339;50.840;4.346;2022-09-12T07:31:09;19.30;99.90
25410;DHT22;13339;50.840;4.346;2022-09-12T07:33:35;19.50;99.90
25410;DHT22;13339;50.840;4.346;2022-09-12T07:36:12;19.50;99.90
25410;DHT22;13339;50.840;4.346;2022-09-12T07:38:38;19.50;99.90
25410;DHT22;13339;50.840;4.346;2022-09-12T07:43:36;19.70;99.90
25410;DHT22;13339;50.840;4.346;2022-09-12T07:46:02;19.80;99.90
25410;DHT22;13339;50.840;4.346;2022-09-12T07:48:27;19.90;99.90
25410;DHT22;13339;50.840;4.346;2022-09-12T07:51:00;20.00;99.90
25410;DHT22;13339;50.840;4.346;2022-09-12T07:53:31;20.10;99.90
25410;DHT22;13339;50.840;4.346;2022-09-12T07:55:57;20.10;99.90
25410;DHT22;13339;50.840;4.346;2022-09-12T07:58:23;20.10;99.90
25410;DHT22;13339;50.840;4.346;2022-09-12T08:00:49;20.10;99.90
25410;DHT22;13339;50.840;4.346;2022-09-12T08:03:15;20.20;99.90
25410;DHT22;13339;50.840;4.346;2022-09-12T08:05:40;20.40;99.90
25410;DHT22;13339;50.840;4.346;2022-09-12T08:08:06;20.80;99.90
25410;DHT22;13339;50.840;4.346;2022-09-12T08:10:32;21.10;99.90
25410;DHT22;13339;50.840;4.346;2022-09-12T08:12:57;21.40;99.90
25410;DHT22;13339;50.840;4.346;2022-09-12T08:15:23;21.50;99.90
25410;DHT22;13339;50.840;4.346;2022-09-12T08:17:49;21.60;99.90
25410;DHT22;13339;50.840;4.346;2022-09-12T08:20:15;21.70;99.90
25410;DHT22;13339;50.840;4.346;2022-09-12T08:22:42;21.80;99.90
25410;DHT22;13339;50.840;4.346;2022-09-12T08:25:08;21.80;99.90
25410;DHT22;13339;50.840;4.346;2022-09-12T08:27:34;21.80;99.90
25410;DHT22;13339;50.840;4.346;2022-09-12T08:30:00;21.80;99.90
25410;DHT22;13339;50.840;4.346;2022-09-12T08:32:26;21.70;99.90
25410;DHT22;13339;50.840;4.346;2022-09-12T08:34:52;21.70;99.90
25410;DHT22;13339;50.840;4.346;2022-09-12T08:37:18;21.70;99.90
25410;DHT22;13339;50.840;4.346;2022-09-12T08:39:44;21.80;99.90
25410;DHT22;13339;50.840;4.346;2022-09-12T08:42:10;21.70;99.90
25410;DHT22;13339;50.840;4.346;2022-09-12T08:44:55;21.80;99.90
25410;DHT22;13339;50.840;4.346;2022-09-12T08:47:29;21.90;99.90
25410;DHT22;13339;50.840;4.346;2022-09-12T08:52:56;22.00;99.90
25410;DHT22;13339;50.840;4.346;2022-09-12T08:58:16;22.00;99.90
25410;DHT22;13339;50.840;4.346;2022-09-12T09:04:16;22.10;99.90
25410;DHT22;13339;50.840;4.346;2022-09-12T09:15:10;22.20;99.90
25410;DHT22;13339;50.840;4.346;2022-09-12T09:17:42;22.30;99.90
25410;DHT22;13339;50.840;4.346;2022-09-12T09:23:38;22.40;99.90
25410;DHT22;13339;50.840;4.346;2022-09-12T09:26:22;22.50;99.90
25410;DHT22;13339;50.840;4.346;2022-09-12T09:29:00;22.60;99.90
25410;DHT22;13339;50.840;4.346;2022-09-12T09:31:32;22.70;99.90
25410;DHT22;13339;50.840;4.346;2022-09-12T09:33:58;22.70;99.90
25410;DHT22;13339;50.840;4.346;2022-09-12T09:44:46;23.00;99.90
25410;DHT22;13339;50.840;4.346;2022-09-12T09:47:13;23.10;99.90
25410;DHT22;13339;50.840;4.346;2022-09-12T09:49:40;23.20;99.90
25410;DHT22;13339;50.840;4.346;2022-09-12T09:52:07;23.30;99.90
25410;DHT22;13339;50.840;4.346;2022-09-12T09:54:59;23.40;99.90
25410;DHT22;13339;50.840;4.346;2022-09-12T10:00:29;23.40;99.90
25410;DHT22;13339;50.840;4.346;2022-09-12T10:05:56;23.70;99.90
25410;DHT22;13339;50.840;4.346;2022-09-12T10:08:29;23.80;99.90
25410;DHT22;13339;50.840;4.346;2022-09-12T10:10:56;23.80;99.90
25410;DHT22;13339;50.840;4.346;2022-09-12T10:13:26;23.80;99.90
25410;DHT22;13339;50.840;4.346;2022-09-12T10:15:59;23.90;99.90
25410;DHT22;13339;50.840;4.346;2022-09-12T10:18:34;24.10;99.90
25410;DHT22;13339;50.840;4.346;2022-09-12T10:21:01;24.20;99.90
25410;DHT22;13339;50.840;4.346;2022-09-12T10:23:32;24.30;99.90
25410;DHT22;13339;50.840;4.346;2022-09-12T10:26:03;24.40;99.90
25410;DHT22;13339;50.840;4.346;2022-09-12T10:28:37;24.50;99.90
25410;DHT22;13339;50.840;4.346;2022-09-12T10:31:04;24.40;99.90
25410;DHT22;13339;50.840;4.346;2022-09-12T10:33:40;24.50;99.90
25410;DHT22;13339;50.840;4.346;2022-09-12T10:36:06;24.70;99.90
25410;DHT22;13339;50.840;4.346;2022-09-12T10:38:32;24.70;99.90
25410;DHT22;13339;50.840;4.346;2022-09-12T10:41:06;24.70;99.90
25410;DHT22;13339;50.840;4.346;2022-09-12T10:48:47;24.90;99.90
25410;DHT22;13339;50.840;4.346;2022-09-12T10:51:33;25.00;99.90
25410;DHT22;13339;50.840;4.346;2022-09-12T10:54:00;25.10;99.90
25410;DHT22;13339;50.840;4.346;2022-09-12T10:56:31;25.10;99.90
25410;DHT22;13339;50.840;4.346;2022-09-12T11:01:55;25.10;99.90
25410;DHT22;13339;50.840;4.346;2022-09-12T11:18:36;25.90;99.90
25410;DHT22;13339;50.840;4.346;2022-09-12T11:26:52;25.90;99.90
25410;DHT22;13339;50.840;4.346;2022-09-12T11:29:40;26.10;99.90
25410;DHT22;13339;50.840;4.346;2022-09-12T11:40:41;26.40;99.90
25410;DHT22;13339;50.840;4.346;2022-09-12T11:43:22;26.50;99.90
25410;DHT22;13339;50.840;4.346;2022-09-12T11:45:50;26.70;99.90
25410;DHT22;13339;50.840;4.346;2022-09-12T11:51:19;26.80;99.90
25410;DHT22;13339;50.840;4.346;2022-09-12T11:53:57;26.90;99.90
25410;DHT22;13339;50.840;4.346;2022-09-12T11:56:24;27.00;99.90
25410;DHT22;13339;50.840;4.346;2022-09-12T11:58:59;27.00;99.90
25410;DHT22;13339;50.840;4.346;2022-09-12T12:01:31;27.10;99.90
25410;DHT22;13339;50.840;4.346;2022-09-12T12:04:00;27.20;99.90
25410;DHT22;13339;50.840;4.346;2022-09-12T12:06:35;27.20;99.90
25410;DHT22;13339;50.840;4.346;2022-09-12T12:09:04;27.30;99.90
25410;DHT22;13339;50.840;4.346;2022-09-12T12:11:34;27.30;99.90
25410;DHT22;13339;50.840;4.346;2022-09-12T12:14:04;27.60;99.90
25410;DHT22;13339;50.840;4.346;2022-09-12T12:16:33;27.60;99.90
25410;DHT22;13339;50.840;4.346;2022-09-12T12:19:05;27.60;99.90
25410;DHT22;13339;50.840;4.346;2022-09-12T12:21:51;27.70;99.90
25410;DHT22;13339;50.840;4.346;2022-09-12T12:24:24;27.80;99.90
25410;DHT22;13339;50.840;4.346;2022-09-12T12:26:57;27.80;99.90
25410;DHT22;13339;50.840;4.346;2022-09-12T12:29:59;27.90;99.90
25410;DHT22;13339;50.840;4.346;2022-09-12T12:32:25;27.90;99.90
25410;DHT22;13339;50.840;4.346;2022-09-12T12:35:01;27.90;99.90
25410;DHT22;13339;50.840;4.346;2022-09-12T12:40:09;28.00;99.90
25410;DHT22;13339;50.840;4.346;2022-09-12T12:42:55;28.10;99.90
25410;DHT22;13339;50.840;4.346;2022-09-12T12:48:07;28.10;99.90
25410;DHT22;13339;50.840;4.346;2022-09-12T12:50:34;28.10;99.90
25410;DHT22;13339;50.840;4.346;2022-09-12T12:58:06;28.20;99.90
25410;DHT22;13339;50.840;4.346;2022-09-12T13:00:38;28.20;99.90
25410;DHT22;13339;50.840;4.346;2022-09-12T13:05:46;28.20;99.90
25410;DHT22;13339;50.840;4.346;2022-09-12T13:13:23;28.00;99.90
25410;DHT22;13339;50.840;4.346;2022-09-12T13:15:51;27.80;99.90
25410;DHT22;13339;50.840;4.346;2022-09-12T13:18:25;27.80;99.90
25410;DHT22;13339;50.840;4.346;2022-09-12T13:23:33;27.70;99.90
25410;DHT22;13339;50.840;4.346;2022-09-12T13:26:00;27.80;99.90
25410;DHT22;13339;50.840;4.346;2022-09-12T13:28:30;27.80;99.90
25410;DHT22;13339;50.840;4.346;2022-09-12T13:31:10;28.00;99.90
25410;DHT22;13339;50.840;4.346;2022-09-12T13:33:54;28.10;99.90
25410;DHT22;13339;50.840;4.346;2022-09-12T13:42:41;28.30;99.90
25410;DHT22;13339;50.840;4.346;2022-09-12T13:45:24;28.40;99.90
25410;DHT22;13339;50.840;4.346;2022-09-12T13:48:00;28.50;99.90
25410;DHT22;13339;50.840;4.346;2022-09-12T13:50:31;28.50;99.90
25410;DHT22;13339;50.840;4.346;2022-09-12T13:53:00;28.50;99.90
25410;DHT22;13339;50.840;4.346;2022-09-12T13:55:36;28.60;99.90
25410;DHT22;13339;50.840;4.346;2022-09-12T14:00:45;28.10;99.90
25410;DHT22;13339;50.840;4.346;2022-09-12T14:03:24;28.10;99.90
25410;DHT22;13339;50.840;4.346;2022-09-12T14:06:09;28.20;99.90
25410;DHT22;13339;50.840;4.346;2022-09-12T14:08:38;28.30;99.90
25410;DHT22;13339;50.840;4.346;2022-09-12T14:11:08;28.30;99.90
25410;DHT22;13339;50.840;4.346;2022-09-12T14:13:34;28.20;99.90
25410;DHT22;13339;50.840;4.346;2022-09-12T14:16:00;28.10;99.90
25410;DHT22;13339;50.840;4.346;2022-09-12T14:18:28;28.00;99.90
25410;DHT22;13339;50.840;4.346;2022-09-12T14:20:58;28.00;99.90
25410;DHT22;13339;50.840;4.346;2022-09-12T14:23:29;28.20;99.90
25410;DHT22;13339;50.840;4.346;2022-09-12T14:26:01;28.00;99.90
25410;DHT22;13339;50.840;4.346;2022-09-12T14:28:29;28.00;99.90
25410;DHT22;13339;50.840;4.346;2022-09-12T14:33:25;28.10;99.90
25410;DHT22;13339;50.840;4.346;2022-09-12T14:36:07;28.20;99.90
25410;DHT22;13339;50.840;4.346;2022-09-12T14:38:36;28.30;99.90
25410;DHT22;13339;50.840;4.346;2022-09-12T14:41:09;28.20;99.90
25410;DHT22;13339;50.840;4.346;2022-09-12T14:43:37;28.20;99.90
25410;DHT22;13339;50.840;4.346;2022-09-12T14:46:17;28.20;99.90
25410;DHT22;13339;50.840;4.346;2022-09-12T14:49:05;28.20;99.90
25410;DHT22;13339;50.840;4.346;2022-09-12T14:51:35;28.20;99.90
25410;DHT22;13339;50.840;4.346;2022-09-12T14:54:02;28.30;99.90
25410;DHT22;13339;50.840;4.346;2022-09-12T14:56:42;28.20;99.90
25410;DHT22;13339;50.840;4.346;2022-09-12T15:05:20;28.00;99.90
25410;DHT22;13339;50.840;4.346;2022-09-12T15:10:06;28.10;99.90
25410;DHT22;13339;50.840;4.346;2022-09-12T15:12:34;28.10;99.90
25410;DHT22;13339;50.840;4.346;2022-09-12T15:15:11;28.20;99.90
25410;DHT22;13339;50.840;4.346;2022-09-12T15:17:37;28.20;99.90
25410;DHT22;13339;50.840;4.346;2022-09-12T15:20:03;28.20;99.90
25410;DHT22;13339;50.840;4.346;2022-09-12T15:22:31;28.20;99.90
25410;DHT22;13339;50.840;4.346;2022-09-12T15:24:58;28.20;99.90
25410;DHT22;13339;50.840;4.346;2022-09-12T15:27:24;28.00;99.90
25410;DHT22;13339;50.840;4.346;2022-09-12T15:29:51;28.00;99.90
25410;DHT22;13339;50.840;4.346;2022-09-12T15:32:24;28.10;99.90
25410;DHT22;13339;50.840;4.346;2022-09-12T15:34:51;28.10;99.90
25410;DHT22;13339;50.840;4.346;2022-09-12T15:37:21;27.90;99.90
25410;DHT22;13339;50.840;4.346;2022-09-12T15:39:47;27.90;99.90
25410;DHT22;13339;50.840;4.346;2022-09-12T15:42:13;27.90;99.90
25410;DHT22;13339;50.840;4.346;2022-09-12T15:44:39;27.90;99.90
25410;DHT22;13339;50.840;4.346;2022-09-12T15:47:05;27.80;99.90
25410;DHT22;13339;50.840;4.346;2022-09-12T15:49:31;27.80;99.90
25410;DHT22;13339;50.840;4.346;2022-09-12T15:51:57;27.90;99.90
25410;DHT22;13339;50.840;4.346;2022-09-12T15:54:23;27.90;99.90
25410;DHT22;13339;50.840;4.346;2022-09-12T15:56:49;27.90;99.90
25410;DHT22;13339;50.840;4.346;2022-09-12T15:59:14;28.00;99.90
25410;DHT22;13339;50.840;4.346;2022-09-12T16:01:40;27.90;99.90
25410;DHT22;13339;50.840;4.346;2022-09-12T16:04:25;28.00;99.90
25410;DHT22;13339;50.840;4.346;2022-09-12T16:06:52;27.90;99.90
25410;DHT22;13339;50.840;4.346;2022-09-12T16:09:19;27.90;99.90
25410;DHT22;13339;50.840;4.346;2022-09-12T16:11:45;27.90;99.90
25410;DHT22;13339;50.840;4.346;2022-09-12T16:14:15;27.80;99.90
25410;DHT22;13339;50.840;4.346;2022-09-12T16:16:41;27.70;99.90
25410;DHT22;13339;50.840;4.346;2022-09-12T16:19:08;27.60;99.90
25410;DHT22;13339;50.840;4.346;2022-09-12T16:21:34;27.60;99.90
25410;DHT22;13339;50.840;4.346;2022-09-12T16:24:00;27.60;99.90
25410;DHT22;13339;50.840;4.346;2022-09-12T16:26:26;27.60;99.90
25410;DHT22;13339;50.840;4.346;2022-09-12T16:28:56;27.50;99.90
25410;DHT22;13339;50.840;4.346;2022-09-12T16:31:21;27.60;99.90
25410;DHT22;13339;50.840;4.346;2022-09-12T16:33:48;27.60;99.90
25410;DHT22;13339;50.840;4.346;2022-09-12T16:36:15;27.30;99.90
25410;DHT22;13339;50.840;4.346;2022-09-12T16:38:52;27.40;99.90
25410;DHT22;13339;50.840;4.346;2022-09-12T16:41:20;27.40;99.90
25410;DHT22;13339;50.840;4.346;2022-09-12T16:43:46;27.40;99.90
25410;DHT22;13339;50.840;4.346;2022-09-12T16:46:18;27.40;99.90
25410;DHT22;13339;50.840;4.346;2022-09-12T16:48:48;27.50;99.90
25410;DHT22;13339;50.840;4.346;2022-09-12T16:51:16;27.50;99.90
25410;DHT22;13339;50.840;4.346;2022-09-12T16:53:42;27.40;99.90
25410;DHT22;13339;50.840;4.346;2022-09-12T16:56:08;27.40;99.90
25410;DHT22;13339;50.840;4.346;2022-09-12T16:58:35;27.30;99.90
25410;DHT22;13339;50.840;4.346;2022-09-12T17:01:06;27.10;99.90
25410;DHT22;13339;50.840;4.346;2022-09-12T17:03:33;27.10;99.90
25410;DHT22;13339;50.840;4.346;2022-09-12T17:06:05;27.00;99.90
25410;DHT22;13339;50.840;4.346;2022-09-12T17:08:33;27.10;99.90
25410;DHT22;13339;50.840;4.346;2022-09-12T17:11:07;27.20;99.90
25410;DHT22;13339;50.840;4.346;2022-09-12T17:13:33;27.20;99.90
25410;DHT22;13339;50.840;4.346;2022-09-12T17:16:03;27.20;99.90
25410;DHT22;13339;50.840;4.346;2022-09-12T17:18:29;27.30;99.90
25410;DHT22;13339;50.840;4.346;2022-09-12T17:20:54;27.20;99.90
25410;DHT22;13339;50.840;4.346;2022-09-12T17:23:21;27.20;99.90
25410;DHT22;13339;50.840;4.346;2022-09-12T17:25:48;27.00;99.90
25410;DHT22;13339;50.840;4.346;2022-09-12T17:28:14;27.00;99.90
25410;DHT22;13339;50.840;4.346;2022-09-12T17:30:39;26.90;99.90
25410;DHT22;13339;50.840;4.346;2022-09-12T17:33:06;26.90;99.90
25410;DHT22;13339;50.840;4.346;2022-09-12T17:35:36;26.90;99.90
25410;DHT22;13339;50.840;4.346;2022-09-12T17:38:02;26.90;99.90
25410;DHT22;13339;50.840;4.346;2022-09-12T17:40:28;26.90;99.90
25410;DHT22;13339;50.840;4.346;2022-09-12T17:42:53;26.90;99.90
25410;DHT22;13339;50.840;4.346;2022-09-12T17:45:21;26.80;99.90
25410;DHT22;13339;50.840;4.346;2022-09-12T17:47:46;26.80;99.90
25410;DHT22;13339;50.840;4.346;2022-09-12T17:50:12;26.80;99.90
25410;DHT22;13339;50.840;4.346;2022-09-12T17:52:37;26.80;99.90
25410;DHT22;13339;50.840;4.346;2022-09-12T17:55:03;26.80;99.90
25410;DHT22;13339;50.840;4.346;2022-09-12T17:57:29;26.80;99.90
25410;DHT22;13339;50.840;4.346;2022-09-12T17:59:54;26.60;99.90
25410;DHT22;13339;50.840;4.346;2022-09-12T18:02:20;26.60;99.90
25410;DHT22;13339;50.840;4.346;2022-09-12T18:04:46;26.60;99.90
25410;DHT22;13339;50.840;4.346;2022-09-12T18:07:13;26.50;99.90
25410;DHT22;13339;50.840;4.346;2022-09-12T18:09:39;26.50;99.90
25410;DHT22;13339;50.840;4.346;2022-09-12T18:12:09;26.40;99.90
25410;DHT22;13339;50.840;4.346;2022-09-12T18:14:35;26.40;99.90
25410;DHT22;13339;50.840;4.346;2022-09-12T18:17:02;26.30;99.90
25410;DHT22;13339;50.840;4.346;2022-09-12T18:19:28;26.30;99.90
25410;DHT22;13339;50.840;4.346;2022-09-12T18:21:54;26.30;99.90
25410;DHT22;13339;50.840;4.346;2022-09-12T18:24:20;26.30;99.90
25410;DHT22;13339;50.840;4.346;2022-09-12T18:26:46;26.20;99.90
25410;DHT22;13339;50.840;4.346;2022-09-12T18:29:12;26.20;99.90